Benge, WA

6:34 AM PDT on August 28, 2014 (GMT -0700)
Spokane International | Change Station
CLOSE
Current Station
Airport
Location: Spokane,
Elevation: 2365 ft
Nearby Weather Stations

Elev 2365 ft 47.62 °N, 117.53 °W | Updated 41 minutes ago

Partly Cloudy
Partly Cloudy
62 °F
Feels Like 62 °F
N
10
Wind Variable Wind from South

Today
High -- | Low -- °F
--% Chance of Precip.
Yesterday
High -- | Low -- °F
Precip. -- in
6:06 AM 7:38 PM
Waxing Crescent, 8% visible
Pressure 29.92 in
Visibility 10.0 miles
Clouds Few 1500 ft
Few 10000 ft
Few 25000 ft
Dew Point 52 °F
Humidity 70%
Rainfall 0.00 in
Snow Depth Not available.
UV 0 out of 12
Pollen 7.70 out of 12
Air Quality Not available.
Flu Activity Not available.
METAR KGEG 281253Z 19009KT 10SM FEW015 FEW100 FEW250 17/11 A2997 RMK AO2 SLP132 T01670111

More Conditions Fewer Conditions

Pressure 29.92 in
Visibility 10.0 miles
Clouds Few 1500 ft
Few 10000 ft
Few 25000 ft
Dew Point 52 °F
Humidity 70%
Rainfall 0.00 in
Snow Depth Not available.
UV 0 out of 12
Pollen 7.70 out of 12
Air Quality Not available.
Flu Activity Not available.
METAR KGEG 281253Z 19009KT 10SM FEW015 FEW100 FEW250 17/11 A2997 RMK AO2 SLP132 T01670111

More Conditions Fewer Conditions

10-Day Weather Forecast

Almanac

Astronomy

Aug. 28, 2014 Rise Set
Actual Time 6:06 AM PDT 7:38 PM PDT
Civil Twilight 5:34 AM PDT 8:10 PM PDT
Nautical Twilight 4:55 AM PDT 8:49 PM PDT
Astronomical Twilight 4:14 AM PDT 9:30 PM PDT
Moon 9:17 AM PDT 8:50 PM PDT
Length of Visible Light 14h 36m
Length of Day
13h 32m
Tomorrow will be 3m 12s shorter.
Waxing Crescent, 8% of the Moon is Illuminated
Today
Waxing Crescent
Sep 2
First Quarter
Sep 8
Full
Sep 15
Last Quarter
Sep 24
New

Today's Extremes

State Highs State Lows

Community

WunderPhotos

Upload Photos

1,747,947 photos uploaded!

Nearby

Snow Depth

Station Depth Elevation
Touchet 0 in 5530 ft
Spruce Springs 0 in 5700 ft
Sourdough Gulch 0 in 4000 ft
Quartz Peak 1 in 4700 ft
Trough 0 in 5300 ft

Earthquake Activity

City Distance Mag. Time & Date
No recent earthquake activity has been reported nearby.
Minimum magnitude displayed is 2.5.

Coastal Water Temperatures

Place Temperature
No Stations Reporting

Nearby Weather Stations